N262HR KSRQ-
Flight info
| Callsign | N262HR |
|---|---|
| Flight time | N/A |
| Altitude | VFR |
| Route | |
| Aircraft | B222/L-DOV/C |
Departure
| Time | 2026-04-24 16:50 |
|---|---|
| Airport | Sarasota Bradenton International Airport (KSRQ) |
Arrival
| Time | N/A |
|---|---|
| Airport | - |
| Time | Latitude | Longitude | Altitude | Speed | Heading |
|---|---|---|---|---|---|
| 2026-04-24 16:47 | 27.40199 | -82.55162 | 24 ft | 0 kts | 302° |
| 2026-04-24 16:49 | 27.40208 | -82.55169 | 35 ft | 1 kts | 300° |
| 2026-04-24 16:49 | 27.40227 | -82.55184 | 119 ft | 7 kts | 302° |
| 2026-04-24 16:49 | 27.40296 | -82.55254 | 227 ft | 14 kts | 304° |
| 2026-04-24 16:49 | 27.40325 | -82.55281 | 356 ft | 11 kts | 305° |
| 2026-04-24 16:50 | 27.40475 | -82.55356 | 397 ft | 66 kts | 353° |
| 2026-04-24 16:50 | 27.41153 | -82.55302 | 517 ft | 89 kts | 24° |
| 2026-04-24 16:50 | 27.41403 | -82.54716 | 561 ft | 84 kts | 85° |
| 2026-04-24 16:50 | 27.41453 | -82.54061 | 720 ft | 81 kts | 92° |
| 2026-04-24 16:51 | 27.41482 | -82.53389 | 817 ft | 90 kts | 93° |
| 2026-04-24 16:51 | 27.41469 | -82.52640 | 846 ft | 96 kts | 91° |
| 2026-04-24 16:51 | 27.41448 | -82.51862 | 879 ft | 105 kts | 90° |
| 2026-04-24 16:51 | 27.41475 | -82.51021 | 860 ft | 110 kts | 88° |
| 2026-04-24 16:52 | 27.41751 | -82.50269 | 934 ft | 109 kts | 48° |
| 2026-04-24 16:52 | 27.42272 | -82.49643 | 996 ft | 105 kts | 54° |
| 2026-04-24 16:52 | 27.42738 | -82.48974 | 1017 ft | 111 kts | 58° |
| 2026-04-24 16:52 | 27.43065 | -82.48191 | 952 ft | 107 kts | 85° |
| 2026-04-24 16:53 | 27.43119 | -82.47350 | 984 ft | 109 kts | 88° |
| 2026-04-24 16:53 | 27.43142 | -82.46504 | 1112 ft | 106 kts | 91° |
| 2026-04-24 16:53 | 27.43171 | -82.45729 | 1367 ft | 95 kts | 87° |
| 2026-04-24 16:53 | 27.43197 | -82.44950 | 1359 ft | 98 kts | 90° |
| 2026-04-24 16:54 | 27.43237 | -82.44203 | 1510 ft | 87 kts | 90° |
| 2026-04-24 16:54 | 27.43279 | -82.43444 | 1493 ft | 105 kts | 94° |
| 2026-04-24 16:54 | 27.43276 | -82.42581 | 1377 ft | 117 kts | 88° |
| 2026-04-24 16:54 | 27.43317 | -82.41715 | 1428 ft | 103 kts | 88° |
| 2026-04-24 16:55 | 27.43397 | -82.40847 | 1142 ft | 124 kts | 84° |
| 2026-04-24 16:55 | 27.43560 | -82.39912 | 1144 ft | 119 kts | 72° |
| 2026-04-24 16:55 | 27.44080 | -82.39417 | 1536 ft | 100 kts | 17° |
| 2026-04-24 16:55 | 27.44848 | -82.39540 | 1386 ft | 122 kts | 349° |
| 2026-04-24 16:56 | 27.45731 | -82.39644 | 1157 ft | 132 kts | 13° |
| 2026-04-24 16:56 | 27.46356 | -82.39023 | 927 ft | 111 kts | 78° |
| 2026-04-24 16:56 | 27.46486 | -82.38220 | 862 ft | 106 kts | 78° |
| 2026-04-24 16:56 | 27.46612 | -82.37419 | 766 ft | 101 kts | 88° |
| 2026-04-24 16:57 | 27.46632 | -82.36663 | 881 ft | 98 kts | 90° |
| 2026-04-24 16:57 | 27.46673 | -82.35876 | 826 ft | 101 kts | 88° |
| 2026-04-24 16:57 | 27.46686 | -82.35130 | 839 ft | 89 kts | 91° |
| 2026-04-24 16:57 | 27.46609 | -82.34435 | 938 ft | 86 kts | 106° |
| 2026-04-24 16:58 | 27.46511 | -82.33783 | 935 ft | 83 kts | 92° |
| 2026-04-24 16:58 | 27.46467 | -82.33221 | 820 ft | 61 kts | 94° |
| 2026-04-24 16:58 | 27.46454 | -82.32918 | 800 ft | 20 kts | 81° |
| 2026-04-24 16:58 | 27.46486 | -82.32801 | 527 ft | 21 kts | 73° |
| 2026-04-24 16:59 | 27.46477 | -82.32606 | 156 ft | 16 kts | 82° |
| 2026-04-24 16:59 | 27.46460 | -82.32581 | 95 ft | 1 kts | 87° |
| 2026-04-24 16:59 | 27.46447 | -82.32572 | 80 ft | 0 kts | 102° |
| 2026-04-24 17:01 | 27.46438 | -82.32550 | 122 ft | 10 kts | 153° |
| 2026-04-24 17:01 | 27.46208 | -82.32440 | 146 ft | 68 kts | 139° |
| 2026-04-24 17:02 | 27.46402 | -82.31281 | 463 ft | 94 kts | 95° |
| 2026-04-24 17:02 | 27.46367 | -82.30555 | 591 ft | 98 kts | 94° |
| 2026-04-24 17:02 | 27.46402 | -82.29673 | 541 ft | 119 kts | 93° |
| 2026-04-24 17:02 | 27.46436 | -82.28766 | 640 ft | 115 kts | 89° |
| 2026-04-24 17:03 | 27.46492 | -82.27050 | 753 ft | 120 kts | 89° |
| 2026-04-24 17:03 | 27.46484 | -82.26189 | 987 ft | 104 kts | 101° |
| 2026-04-24 17:03 | 27.46455 | -82.25395 | 1149 ft | 103 kts | 91° |
| 2026-04-24 17:04 | 27.46444 | -82.24548 | 1093 ft | 112 kts | 91° |
| 2026-04-24 17:04 | 27.46384 | -82.22696 | 1098 ft | 123 kts | 94° |
| 2026-04-24 17:04 | 27.46371 | -82.21676 | 873 ft | 132 kts | 91° |
| 2026-04-24 17:05 | 27.46358 | -82.20644 | 816 ft | 127 kts | 96° |
| 2026-04-24 17:05 | 27.46274 | -82.19668 | 784 ft | 132 kts | 98° |
| 2026-04-24 17:05 | 27.46033 | -82.17754 | 913 ft | 109 kts | 98° |
| 2026-04-24 17:06 | 27.46014 | -82.16856 | 974 ft | 117 kts | 89° |
| 2026-04-24 17:06 | 27.46234 | -82.15123 | 1150 ft | 115 kts | 80° |
| 2026-04-24 17:06 | 27.46353 | -82.14205 | 1053 ft | 121 kts | 87° |
| 2026-04-24 17:07 | 27.46386 | -82.13566 | 989 ft | 126 kts | 89° |
| 2026-04-24 17:07 | 27.46355 | -82.12212 | 749 ft | 132 kts | 95° |
| 2026-04-24 17:07 | 27.46090 | -82.10502 | 708 ft | 98 kts | 158° |
| 2026-04-24 17:08 | 27.44782 | -82.10842 | 826 ft | 74 kts | 156° |
| 2026-04-24 17:08 | 27.44626 | -82.10668 | 1084 ft | 12 kts | 7° |
| 2026-04-24 17:08 | 27.44799 | -82.10628 | 826 ft | 50 kts | 349° |
| 2026-04-24 17:09 | 27.45705 | -82.10454 | 144 ft | 33 kts | 316° |
| 2026-04-24 17:09 | 27.45841 | -82.10466 | 88 ft | 4 kts | 301° |
| 2026-04-24 17:10 | 27.45843 | -82.10460 | 85 ft | 0 kts | 301° |
| 2026-04-24 17:12 | 27.46688 | -82.10230 | 342 ft | 99 kts | 23° |